createdAt,value
2018-02-11T00:00:39.101Z,17.66
2018-02-11T00:01:41.571Z,17.65
2018-02-11T00:02:44.085Z,17.64
2018-02-11T00:03:46.580Z,17.63
2018-02-11T00:04:49.080Z,17.62
2018-02-11T00:05:51.552Z,17.61
2018-02-11T00:06:54.033Z,17.61
2018-02-11T00:07:56.502Z,17.60
2018-02-11T00:08:59.012Z,17.58
2018-02-11T00:10:01.497Z,17.58
2018-02-11T00:11:03.974Z,17.57
2018-02-11T00:12:06.458Z,17.56
2018-02-11T00:13:08.936Z,17.55
2018-02-11T00:14:11.449Z,17.54
2018-02-11T00:15:13.933Z,17.54
2018-02-11T00:16:16.399Z,17.52
2018-02-11T00:17:18.885Z,17.51
2018-02-11T00:18:21.365Z,17.51
2018-02-11T00:19:23.876Z,17.50
2018-02-11T00:20:26.340Z,17.49
2018-02-11T00:21:28.832Z,17.49
2018-02-11T00:22:31.351Z,17.48
2018-02-11T00:23:33.833Z,17.46
2018-02-11T00:24:36.344Z,17.45
2018-02-11T00:25:38.832Z,17.44
2018-02-11T00:26:41.301Z,17.44
2018-02-11T00:27:43.789Z,17.43
2018-02-11T00:28:46.285Z,17.42
2018-02-11T00:29:48.781Z,17.41
2018-02-11T00:30:51.246Z,17.41
2018-02-11T00:31:53.714Z,17.40
2018-02-11T00:32:56.174Z,17.40
2018-02-11T00:33:58.692Z,17.38
2018-02-11T00:35:01.201Z,17.37
2018-02-11T00:36:03.670Z,17.37
2018-02-11T00:37:06.148Z,17.36
2018-02-11T00:38:09.586Z,17.35
2018-02-11T00:39:12.049Z,17.34
2018-02-11T00:40:14.532Z,17.34
2018-02-11T00:41:17.021Z,17.33
2018-02-11T00:42:19.490Z,17.32
2018-02-11T00:43:21.981Z,17.31
2018-02-11T00:44:24.443Z,17.31
2018-02-11T00:45:26.925Z,17.30
2018-02-11T00:46:29.404Z,17.29
2018-02-11T00:47:31.888Z,17.28
2018-02-11T00:48:34.358Z,17.27
2018-02-11T00:49:36.837Z,17.27
2018-02-11T00:50:39.307Z,17.26
2018-02-11T00:51:41.797Z,17.25
2018-02-11T00:52:44.270Z,17.24
2018-02-11T00:53:46.753Z,17.23
2018-02-11T00:54:49.241Z,17.22
2018-02-11T00:55:51.706Z,17.21
2018-02-11T00:56:54.184Z,17.20
2018-02-11T00:57:56.651Z,17.20
2018-02-11T00:58:59.133Z,17.19
2018-02-11T01:00:01.618Z,17.18
2018-02-11T01:01:04.128Z,17.17
2018-02-11T01:02:06.620Z,17.17
2018-02-11T01:03:09.091Z,17.16
2018-02-11T01:04:11.580Z,17.15
2018-02-11T01:05:14.057Z,17.14
2018-02-11T01:06:16.536Z,17.13
2018-02-11T01:07:19.018Z,17.12
2018-02-11T01:08:21.536Z,17.12
2018-02-11T01:09:24.024Z,17.12
2018-02-11T01:10:26.500Z,17.11
2018-02-11T01:11:28.981Z,17.10
2018-02-11T01:12:31.449Z,17.10
2018-02-11T01:13:33.914Z,17.09
2018-02-11T01:14:36.378Z,17.08
2018-02-11T01:15:38.852Z,17.07
2018-02-11T01:16:41.388Z,17.07
2018-02-11T01:17:43.855Z,17.06
2018-02-11T01:18:46.332Z,17.05
2018-02-11T01:19:48.795Z,17.04
2018-02-11T01:20:51.275Z,17.03
2018-02-11T01:21:53.764Z,17.03
2018-02-11T01:22:56.237Z,17.02
2018-02-11T01:23:58.733Z,17.02
2018-02-11T01:25:01.199Z,17.01
2018-02-11T01:26:03.676Z,17.01
2018-02-11T01:27:06.147Z,17.00
2018-02-11T01:28:08.667Z,17.00
2018-02-11T01:29:11.136Z,16.99
2018-02-11T01:30:13.632Z,16.98
2018-02-11T01:31:16.094Z,16.98
2018-02-11T01:32:18.573Z,16.97
2018-02-11T01:33:21.061Z,16.97
2018-02-11T01:34:23.527Z,16.95
2018-02-11T01:35:26.009Z,16.95
2018-02-11T01:36:29.233Z,16.94
2018-02-11T01:37:31.722Z,16.94
2018-02-11T01:38:34.200Z,16.93
2018-02-11T01:39:36.682Z,16.93
2018-02-11T01:40:39.174Z,16.92
2018-02-11T01:41:41.653Z,16.91
2018-02-11T01:42:44.128Z,16.91
2018-02-11T01:43:46.652Z,16.90
2018-02-11T01:44:49.127Z,16.89
2018-02-11T01:45:51.601Z,16.89
2018-02-11T01:46:54.062Z,16.88
2018-02-11T01:47:56.523Z,16.87
2018-02-11T01:48:58.986Z,16.87
2018-02-11T01:50:13.312Z,16.86
2018-02-11T01:51:15.783Z,16.86
2018-02-11T01:52:18.273Z,16.84
2018-02-11T01:53:20.738Z,16.84
2018-02-11T01:54:23.202Z,16.84
2018-02-11T01:55:25.681Z,16.83
2018-02-11T01:56:28.142Z,16.81
2018-02-11T01:57:30.645Z,16.81
2018-02-11T01:58:33.133Z,16.81
2018-02-11T01:59:35.602Z,16.80
2018-02-11T02:00:38.079Z,16.79
2018-02-11T02:01:40.559Z,16.79
2018-02-11T02:02:43.065Z,16.78
2018-02-11T02:03:45.541Z,16.78
2018-02-11T02:04:48.028Z,16.78
2018-02-11T02:05:50.497Z,16.77
2018-02-11T02:06:52.975Z,16.76
2018-02-11T02:07:55.462Z,16.75
2018-02-11T02:08:57.923Z,16.74
2018-02-11T02:10:00.401Z,16.73
2018-02-11T02:11:02.871Z,16.74
2018-02-11T02:12:05.338Z,16.72
2018-02-11T02:13:07.827Z,16.73
2018-02-11T02:14:10.291Z,16.78
2018-02-11T02:15:12.758Z,16.86
2018-02-11T02:16:15.226Z,16.93
2018-02-11T02:17:17.771Z,17.03
2018-02-11T02:18:20.277Z,17.12
2018-02-11T02:19:22.756Z,17.17
2018-02-11T02:20:25.219Z,17.22
2018-02-11T02:21:27.701Z,17.27
2018-02-11T02:22:30.166Z,17.34
2018-02-11T02:23:32.654Z,17.40
2018-02-11T02:24:35.145Z,17.43
2018-02-11T02:25:37.629Z,17.44
2018-02-11T02:26:40.116Z,17.44
2018-02-11T02:27:42.583Z,17.43
2018-02-11T02:28:45.088Z,17.42
2018-02-11T02:29:47.573Z,17.40
2018-02-11T02:30:50.058Z,17.39
2018-02-11T02:31:52.540Z,17.36
2018-02-11T02:32:55.010Z,17.34
2018-02-11T02:33:57.547Z,17.32
2018-02-11T02:35:00.014Z,17.28
2018-02-11T02:36:02.513Z,17.26
2018-02-11T02:37:04.996Z,17.24
2018-02-11T02:38:07.473Z,17.21
2018-02-11T02:39:09.976Z,17.20
2018-02-11T02:40:12.451Z,17.17
2018-02-11T02:41:14.927Z,17.15
2018-02-11T02:42:17.390Z,17.12
2018-02-11T02:43:19.881Z,17.11
2018-02-11T02:44:22.385Z,17.09
2018-02-11T02:45:24.877Z,17.08
2018-02-11T02:46:27.350Z,17.06
2018-02-11T02:47:29.834Z,17.05
2018-02-11T02:48:32.323Z,17.04
2018-02-11T02:49:34.814Z,17.02
2018-02-11T02:50:37.286Z,17.01
2018-02-11T02:51:39.755Z,17.00
2018-02-11T02:52:42.242Z,16.99
2018-02-11T02:53:44.724Z,16.98
2018-02-11T02:54:47.210Z,16.97
2018-02-11T02:55:49.699Z,16.96
2018-02-11T02:56:52.187Z,16.95
2018-02-11T02:57:54.651Z,16.94
2018-02-11T02:58:57.128Z,16.94
2018-02-11T02:59:59.648Z,16.93
2018-02-11T03:01:02.148Z,16.92
2018-02-11T03:02:04.619Z,16.92
2018-02-11T03:03:07.105Z,16.91
2018-02-11T03:04:09.582Z,16.90
2018-02-11T03:05:12.063Z,16.90
2018-02-11T03:06:14.530Z,16.89
2018-02-11T03:07:17.008Z,16.90
2018-02-11T03:08:19.489Z,16.89
2018-02-11T03:09:21.969Z,16.88
2018-02-11T03:10:24.468Z,16.88
2018-02-11T03:11:26.944Z,16.87
2018-02-11T03:12:29.403Z,16.87
2018-02-11T03:13:31.871Z,16.87
2018-02-11T03:14:34.340Z,16.86
2018-02-11T03:15:36.837Z,16.86
2018-02-11T03:16:39.344Z,16.86
2018-02-11T03:17:41.802Z,16.85
2018-02-11T03:18:44.278Z,16.85
2018-02-11T03:19:46.767Z,16.83
2018-02-11T03:20:49.263Z,16.82
2018-02-11T03:21:51.787Z,16.83
2018-02-11T03:22:54.258Z,16.83
2018-02-11T03:23:56.734Z,16.82
2018-02-11T03:24:59.212Z,16.82
2018-02-11T03:26:01.707Z,16.81
2018-02-11T03:27:04.185Z,16.81
2018-02-11T03:28:06.670Z,16.80
2018-02-11T03:29:09.135Z,16.80
2018-02-11T03:30:11.603Z,16.80
2018-02-11T03:31:14.124Z,16.79
2018-02-11T03:32:16.587Z,16.78
2018-02-11T03:33:19.071Z,16.78
2018-02-11T03:34:21.545Z,16.78
2018-02-11T03:35:24.029Z,16.77
2018-02-11T03:36:26.517Z,16.77
2018-02-11T03:37:29.000Z,16.76
2018-02-11T03:38:31.463Z,16.76
2018-02-11T03:39:33.943Z,16.76
2018-02-11T03:40:36.416Z,16.75
2018-02-11T03:41:38.902Z,16.74
2018-02-11T03:42:41.380Z,16.74
2018-02-11T03:43:43.847Z,16.73
2018-02-11T03:44:46.314Z,16.72
2018-02-11T03:45:48.779Z,16.73
2018-02-11T03:46:51.285Z,16.72
2018-02-11T03:47:53.765Z,16.72
2018-02-11T03:48:56.238Z,16.72
2018-02-11T03:49:58.702Z,16.72
2018-02-11T03:51:01.186Z,16.73
2018-02-11T03:52:03.692Z,16.73
2018-02-11T03:53:06.171Z,16.72
2018-02-11T03:54:08.649Z,16.73
2018-02-11T03:55:11.110Z,16.72
2018-02-11T03:56:13.571Z,16.72
2018-02-11T03:57:16.096Z,16.71
2018-02-11T03:58:18.566Z,16.71
2018-02-11T03:59:21.027Z,16.71
2018-02-11T04:00:23.501Z,16.70
2018-02-11T04:01:25.967Z,16.71
2018-02-11T04:02:28.455Z,16.69
2018-02-11T04:03:30.940Z,16.70
2018-02-11T04:04:33.406Z,16.70
2018-02-11T04:05:35.880Z,16.70
2018-02-11T04:06:38.356Z,16.69
2018-02-11T04:07:40.838Z,16.69
2018-02-11T04:08:43.323Z,16.70
2018-02-11T04:09:45.803Z,16.68
2018-02-11T04:10:48.262Z,16.68
2018-02-11T04:11:50.740Z,16.69
2018-02-11T04:12:53.243Z,16.68
2018-02-11T04:13:55.741Z,16.68
2018-02-11T04:14:58.209Z,16.68
2018-02-11T04:16:00.672Z,16.68
2018-02-11T04:17:03.156Z,16.68
2018-02-11T04:18:05.642Z,16.67
2018-02-11T04:19:08.121Z,16.67
2018-02-11T04:20:10.597Z,16.67
2018-02-11T04:21:13.058Z,16.67
2018-02-11T04:22:15.526Z,16.67
2018-02-11T04:23:18.021Z,16.67
2018-02-11T04:24:20.487Z,16.66
2018-02-11T04:25:22.954Z,16.67
2018-02-11T04:26:25.410Z,16.66
2018-02-11T04:27:27.889Z,16.66
2018-02-11T04:28:30.389Z,16.66
2018-02-11T04:29:32.873Z,16.65
2018-02-11T04:30:35.338Z,16.65
2018-02-11T04:31:37.813Z,16.64
2018-02-11T04:32:40.278Z,16.65
2018-02-11T04:33:42.788Z,16.65
2018-02-11T04:34:45.264Z,16.65
2018-02-11T04:35:47.727Z,16.66
2018-02-11T04:36:50.187Z,16.65
2018-02-11T04:37:52.671Z,16.66
2018-02-11T04:38:55.168Z,16.66
2018-02-11T04:39:57.626Z,16.65
2018-02-11T04:41:00.095Z,16.66
2018-02-11T04:42:02.568Z,16.65
2018-02-11T04:43:05.049Z,16.65
2018-02-11T04:44:07.557Z,16.66
2018-02-11T04:45:10.040Z,16.66
2018-02-11T04:46:12.516Z,16.67
2018-02-11T04:47:14.979Z,16.67
2018-02-11T04:48:17.450Z,16.67
2018-02-11T04:49:19.948Z,16.67
2018-02-11T04:50:22.430Z,16.67
2018-02-11T04:51:24.936Z,16.66
2018-02-11T04:52:27.417Z,16.66
2018-02-11T04:53:29.878Z,16.66
2018-02-11T04:54:32.363Z,16.66
2018-02-11T04:55:34.831Z,16.66
2018-02-11T04:56:37.321Z,16.67
2018-02-11T04:57:39.800Z,16.67
2018-02-11T04:58:42.275Z,16.67
2018-02-11T04:59:44.768Z,16.67
2018-02-11T05:00:47.236Z,16.67
2018-02-11T05:01:49.713Z,16.67
2018-02-11T05:02:52.178Z,16.67
2018-02-11T05:03:54.648Z,16.67
2018-02-11T05:04:57.159Z,16.66
2018-02-11T05:05:59.637Z,16.66
2018-02-11T05:07:02.113Z,16.67
2018-02-11T05:08:04.594Z,16.65
2018-02-11T05:09:07.073Z,16.65
2018-02-11T05:10:09.565Z,16.64
2018-02-11T05:11:12.056Z,16.65
2018-02-11T05:12:14.535Z,16.64
2018-02-11T05:13:16.994Z,16.64
2018-02-11T05:14:19.454Z,16.63
2018-02-11T05:15:21.938Z,16.63
2018-02-11T05:16:24.408Z,16.62
2018-02-11T05:17:26.873Z,16.62
2018-02-11T05:18:29.340Z,16.61
2018-02-11T05:19:31.816Z,16.61
2018-02-11T05:20:34.307Z,16.61
2018-02-11T05:21:36.782Z,16.60
2018-02-11T05:22:39.260Z,16.60
2018-02-11T05:23:41.742Z,16.60
2018-02-11T05:24:44.201Z,16.60
2018-02-11T05:25:46.701Z,16.61
2018-02-11T05:26:49.181Z,16.60
2018-02-11T05:27:51.642Z,16.59
2018-02-11T05:28:54.098Z,16.60
2018-02-11T05:29:56.563Z,16.59
2018-02-11T05:30:59.056Z,16.59
2018-02-11T05:32:01.536Z,16.58
2018-02-11T05:33:04.002Z,16.58
2018-02-11T05:34:06.475Z,16.57
2018-02-11T05:35:08.938Z,16.58
2018-02-11T05:36:11.440Z,16.57
2018-02-11T05:37:13.902Z,16.57
2018-02-11T05:38:16.366Z,16.57
2018-02-11T05:39:18.834Z,16.56
2018-02-11T05:40:21.313Z,16.55
2018-02-11T05:41:23.813Z,16.55
2018-02-11T05:42:26.271Z,16.55
2018-02-11T05:43:28.744Z,16.54
2018-02-11T05:44:31.225Z,16.53
2018-02-11T05:45:33.682Z,16.53
2018-02-11T05:46:36.166Z,16.53
2018-02-11T05:47:38.628Z,16.53
2018-02-11T05:48:41.117Z,16.52
2018-02-11T05:49:43.620Z,16.52
2018-02-11T05:50:46.089Z,16.52
2018-02-11T05:51:48.570Z,16.53
2018-02-11T05:52:51.035Z,16.53
2018-02-11T05:53:53.507Z,16.52
2018-02-11T05:54:55.971Z,16.52
2018-02-11T05:55:58.445Z,16.52
2018-02-11T05:57:00.931Z,16.53
2018-02-11T05:58:03.394Z,16.52
2018-02-11T05:59:05.854Z,16.51
2018-02-11T06:00:08.336Z,16.51
2018-02-11T06:01:10.818Z,16.50
2018-02-11T06:02:13.324Z,16.49
2018-02-11T06:03:15.790Z,16.49
2018-02-11T06:04:18.308Z,16.49
2018-02-11T06:05:20.822Z,16.50
2018-02-11T06:06:23.302Z,16.49
2018-02-11T06:07:25.786Z,16.50
2018-02-11T06:08:28.265Z,16.50
2018-02-11T06:09:30.731Z,16.50
2018-02-11T06:10:33.207Z,16.49
2018-02-11T06:11:35.678Z,16.48
2018-02-11T06:12:38.180Z,16.49
2018-02-11T06:13:40.645Z,16.48
2018-02-11T06:14:43.126Z,16.48
2018-02-11T06:15:45.591Z,16.48
2018-02-11T06:16:48.077Z,16.49
2018-02-11T06:17:50.576Z,16.49
2018-02-11T06:18:53.060Z,16.49
2018-02-11T06:19:55.518Z,16.48
2018-02-11T06:20:57.987Z,16.47
2018-02-11T06:22:00.454Z,16.46
2018-02-11T06:23:02.956Z,16.46
2018-02-11T06:24:05.433Z,16.45
2018-02-11T06:25:07.916Z,16.44
2018-02-11T06:26:10.404Z,16.44
2018-02-11T06:27:12.891Z,16.44
2018-02-11T06:28:15.396Z,16.43
2018-02-11T06:29:17.877Z,16.42
2018-02-11T06:30:20.357Z,16.41
2018-02-11T06:31:22.815Z,16.41
2018-02-11T06:32:25.288Z,16.41
2018-02-11T06:33:27.779Z,16.41
2018-02-11T06:34:30.247Z,16.40
2018-02-11T06:35:32.727Z,16.40
2018-02-11T06:36:35.200Z,16.40
2018-02-11T06:37:37.666Z,16.39
2018-02-11T06:38:40.158Z,16.39
2018-02-11T06:39:42.629Z,16.39
2018-02-11T06:40:45.091Z,16.39
2018-02-11T06:41:47.572Z,16.38
2018-02-11T06:42:50.035Z,16.38
2018-02-11T06:43:52.532Z,16.39
2018-02-11T06:44:55.012Z,16.39
2018-02-11T06:45:57.475Z,16.38
2018-02-11T06:46:59.939Z,16.37
2018-02-11T06:48:02.398Z,16.37
2018-02-11T06:49:04.887Z,16.36
2018-02-11T06:50:07.364Z,16.36
2018-02-11T06:51:09.844Z,16.34
2018-02-11T06:52:12.321Z,16.35
2018-02-11T06:53:14.808Z,16.34
2018-02-11T06:54:17.301Z,16.34
2018-02-11T06:55:19.781Z,16.33
2018-02-11T06:56:22.246Z,16.32
2018-02-11T06:57:24.710Z,16.31
2018-02-11T06:58:27.291Z,16.31
2018-02-11T06:59:29.779Z,16.31
2018-02-11T07:00:32.307Z,16.30
2018-02-11T07:01:34.784Z,16.29
2018-02-11T07:02:37.261Z,16.29
2018-02-11T07:03:39.736Z,16.28
2018-02-11T07:04:42.232Z,16.28
2018-02-11T07:05:44.717Z,16.29
2018-02-11T07:06:47.194Z,16.30
2018-02-11T07:07:49.682Z,16.30
2018-02-11T07:08:52.171Z,16.35
2018-02-11T07:09:54.676Z,16.44
2018-02-11T07:10:57.151Z,16.51
2018-02-11T07:11:59.619Z,16.54
2018-02-11T07:13:02.100Z,16.53
2018-02-11T07:14:04.580Z,16.51
2018-02-11T07:15:07.085Z,16.48
2018-02-11T07:16:09.642Z,16.42
2018-02-11T07:17:12.110Z,16.38
2018-02-11T07:18:14.585Z,16.36
2018-02-11T07:19:17.042Z,16.34
2018-02-11T07:20:19.522Z,16.35
2018-02-11T07:21:21.987Z,16.35
2018-02-11T07:22:24.451Z,16.37
2018-02-11T07:23:26.935Z,16.40
2018-02-11T07:24:29.399Z,16.42
2018-02-11T07:25:31.899Z,16.44
2018-02-11T07:26:34.376Z,16.46
2018-02-11T07:27:36.844Z,16.48
2018-02-11T07:28:39.325Z,16.49
2018-02-11T07:29:41.800Z,16.50
2018-02-11T07:30:44.284Z,16.51
2018-02-11T07:31:46.762Z,16.50
2018-02-11T07:32:49.236Z,16.49
2018-02-11T07:33:51.708Z,16.48
2018-02-11T07:34:54.188Z,16.50
2018-02-11T07:35:56.688Z,16.55
2018-02-11T07:36:59.160Z,16.62
2018-02-11T07:38:01.636Z,16.72
2018-02-11T07:39:04.121Z,16.75
2018-02-11T07:40:06.597Z,16.76
2018-02-11T07:41:09.083Z,16.77
2018-02-11T07:42:11.560Z,16.80
2018-02-11T07:43:14.040Z,16.86
2018-02-11T07:44:16.523Z,16.86
2018-02-11T07:45:19.181Z,16.87
2018-02-11T07:46:21.672Z,16.87
2018-02-11T07:47:24.134Z,16.86
2018-02-11T07:48:26.612Z,16.81
2018-02-11T07:49:29.071Z,16.85
2018-02-11T07:50:31.530Z,16.86
2018-02-11T07:51:34.032Z,16.83
2018-02-11T07:52:36.590Z,16.89
2018-02-11T07:53:39.065Z,16.92
2018-02-11T07:54:41.548Z,16.93
2018-02-11T07:55:44.029Z,16.97
2018-02-11T07:56:46.514Z,17.00
2018-02-11T07:57:48.982Z,16.99
2018-02-11T07:58:51.443Z,16.97
2018-02-11T07:59:53.903Z,16.96
2018-02-11T08:00:56.380Z,16.91
2018-02-11T08:01:58.876Z,16.88
2018-02-11T08:03:01.342Z,16.86
2018-02-11T08:04:03.807Z,16.84
2018-02-11T08:05:06.266Z,16.78
2018-02-11T08:06:08.776Z,16.74
2018-02-11T08:07:11.271Z,16.73
2018-02-11T08:08:13.745Z,16.74
2018-02-11T08:09:16.211Z,16.70
2018-02-11T08:10:18.674Z,16.70
2018-02-11T08:11:21.152Z,16.70
2018-02-11T08:12:23.639Z,16.67
2018-02-11T08:13:26.102Z,16.62
2018-02-11T08:14:28.562Z,16.59
2018-02-11T08:15:31.049Z,16.56
2018-02-11T08:16:33.529Z,16.52
2018-02-11T08:17:36.020Z,16.51
2018-02-11T08:18:38.487Z,16.56
2018-02-11T08:19:40.968Z,16.65
2018-02-11T08:20:43.434Z,16.71
2018-02-11T08:21:45.918Z,16.80
2018-02-11T08:22:48.408Z,16.92
2018-02-11T08:23:50.875Z,17.06
2018-02-11T08:24:53.347Z,17.19
2018-02-11T08:25:55.829Z,17.37
2018-02-11T08:26:58.305Z,17.56
2018-02-11T08:28:00.807Z,17.78
2018-02-11T08:29:03.270Z,17.98
2018-02-11T08:30:05.739Z,18.19
2018-02-11T08:31:08.207Z,18.32
2018-02-11T08:32:10.670Z,18.44
2018-02-11T08:33:13.193Z,18.64
2018-02-11T08:34:15.659Z,18.78
2018-02-11T08:35:18.118Z,18.79
2018-02-11T08:36:20.599Z,18.84
2018-02-11T08:37:23.080Z,18.87
2018-02-11T08:38:25.582Z,18.92
2018-02-11T08:39:28.069Z,18.92
2018-02-11T08:40:30.556Z,18.94
2018-02-11T08:41:33.037Z,18.95
2018-02-11T08:42:35.502Z,18.97
2018-02-11T08:43:38.005Z,19.01
2018-02-11T08:44:40.475Z,19.06
2018-02-11T08:45:42.947Z,19.13
2018-02-11T08:46:45.411Z,19.16
2018-02-11T08:47:47.903Z,19.15
2018-02-11T08:48:50.381Z,19.29
2018-02-11T08:49:52.861Z,19.34
2018-02-11T08:50:55.337Z,19.41
2018-02-11T08:51:57.806Z,19.41
2018-02-11T08:53:00.303Z,19.48
2018-02-11T08:54:02.859Z,19.48
2018-02-11T08:55:05.338Z,19.47
2018-02-11T08:56:07.813Z,19.49
2018-02-11T08:57:10.290Z,19.46
2018-02-11T08:58:12.783Z,19.45
2018-02-11T08:59:15.282Z,19.43
2018-02-11T09:00:17.764Z,19.39
2018-02-11T09:01:20.230Z,19.39
2018-02-11T09:02:22.713Z,19.40
2018-02-11T09:03:25.197Z,19.48
2018-02-11T09:04:27.691Z,19.56
2018-02-11T09:05:30.178Z,19.63
2018-02-11T09:06:32.643Z,19.66
2018-02-11T09:07:35.110Z,19.70
2018-02-11T09:08:37.574Z,19.78
2018-02-11T09:09:40.092Z,19.77
2018-02-11T09:10:42.546Z,19.78
2018-02-11T09:11:45.017Z,19.75
2018-02-11T09:12:47.527Z,19.76
2018-02-11T09:13:49.978Z,19.71
2018-02-11T09:14:52.472Z,19.68
2018-02-11T09:15:54.934Z,19.63
2018-02-11T09:16:57.390Z,19.57
2018-02-11T09:17:59.861Z,19.55
2018-02-11T09:19:02.317Z,19.55
2018-02-11T09:20:04.808Z,19.56
2018-02-11T09:21:07.285Z,19.60
2018-02-11T09:22:09.760Z,19.65
2018-02-11T09:23:12.239Z,19.73
2018-02-11T09:24:14.714Z,19.78
2018-02-11T09:25:17.215Z,19.84
2018-02-11T09:26:19.697Z,19.87
2018-02-11T09:27:22.212Z,19.87
2018-02-11T09:28:25.407Z,19.87
2018-02-11T09:29:27.867Z,19.84
2018-02-11T09:30:30.356Z,19.83
2018-02-11T09:31:32.818Z,19.79
2018-02-11T09:32:35.330Z,19.76
2018-02-11T09:33:37.799Z,19.72
2018-02-11T09:34:40.272Z,19.70
2018-02-11T09:35:42.755Z,19.67
2018-02-11T09:36:45.233Z,19.70
2018-02-11T09:37:47.705Z,19.76
2018-02-11T09:38:50.163Z,19.82
2018-02-11T09:39:52.633Z,19.84
2018-02-11T09:40:55.150Z,19.91
2018-02-11T09:41:57.618Z,19.99
2018-02-11T09:43:00.083Z,19.99
2018-02-11T09:44:02.561Z,20.02
2018-02-11T09:45:05.074Z,20.02
2018-02-11T09:46:07.584Z,20.00
2018-02-11T09:47:10.069Z,19.97
2018-02-11T09:48:12.541Z,19.95
2018-02-11T09:49:14.994Z,19.92
2018-02-11T09:50:17.459Z,19.89
2018-02-11T09:51:19.943Z,19.88
2018-02-11T09:52:22.418Z,19.86
2018-02-11T09:53:24.888Z,19.87
2018-02-11T09:54:27.357Z,19.92
2018-02-11T09:55:29.814Z,19.98
2018-02-11T09:56:32.290Z,20.05
2018-02-11T09:57:34.761Z,20.11
2018-02-11T09:58:37.255Z,20.17
2018-02-11T09:59:39.715Z,20.16
2018-02-11T10:00:42.170Z,20.22
2018-02-11T10:01:44.665Z,20.22
2018-02-11T10:02:47.138Z,20.20
2018-02-11T10:03:49.607Z,20.20
2018-02-11T10:04:52.090Z,20.16
2018-02-11T10:05:54.547Z,20.12
2018-02-11T10:06:57.048Z,20.08
2018-02-11T10:07:59.503Z,20.05
2018-02-11T10:09:01.964Z,20.06
2018-02-11T10:10:04.436Z,20.08
2018-02-11T10:11:06.890Z,20.13
2018-02-11T10:12:09.394Z,20.16
2018-02-11T10:13:11.865Z,20.26
2018-02-11T10:14:14.322Z,20.27
2018-02-11T10:15:16.781Z,20.31
2018-02-11T10:16:19.252Z,20.32
2018-02-11T10:17:21.765Z,20.35
2018-02-11T10:18:24.973Z,20.34
2018-02-11T10:19:27.431Z,20.38
2018-02-11T10:20:29.890Z,20.36
2018-02-11T10:21:32.375Z,20.34
2018-02-11T10:22:34.874Z,20.31
2018-02-11T10:23:37.344Z,20.27
2018-02-11T10:24:39.802Z,20.23
2018-02-11T10:25:42.273Z,20.22
2018-02-11T10:26:44.748Z,20.24
2018-02-11T10:27:47.257Z,20.28
2018-02-11T10:28:49.710Z,20.33
2018-02-11T10:29:52.167Z,20.37
2018-02-11T10:30:54.623Z,20.43
2018-02-11T10:31:57.079Z,20.48
2018-02-11T10:32:59.577Z,20.51
2018-02-11T10:34:02.031Z,20.54
2018-02-11T10:35:04.487Z,20.55
2018-02-11T10:36:06.957Z,20.53
2018-02-11T10:37:09.428Z,20.53
2018-02-11T10:38:11.924Z,20.49
2018-02-11T10:39:14.397Z,20.47
2018-02-11T10:40:16.882Z,20.44
2018-02-11T10:41:19.343Z,20.44
2018-02-11T10:42:21.800Z,20.40
2018-02-11T10:43:24.301Z,20.43
2018-02-11T10:44:26.759Z,20.49
2018-02-11T10:45:29.217Z,20.52
2018-02-11T10:46:31.679Z,20.59
2018-02-11T10:47:34.148Z,20.60
2018-02-11T10:48:36.645Z,20.65
2018-02-11T10:49:39.102Z,20.66
2018-02-11T10:50:41.572Z,20.66
2018-02-11T10:51:44.031Z,20.68
2018-02-11T10:52:46.506Z,20.69
2018-02-11T10:53:49.000Z,20.67
2018-02-11T10:54:51.478Z,20.63
2018-02-11T10:55:53.934Z,20.61
2018-02-11T10:56:56.391Z,20.59
2018-02-11T10:57:58.868Z,20.58
2018-02-11T10:59:01.364Z,20.53
2018-02-11T11:00:03.835Z,20.49
2018-02-11T11:01:06.295Z,20.45
2018-02-11T11:02:08.767Z,20.40
2018-02-11T11:03:11.243Z,20.34
2018-02-11T11:04:13.852Z,20.31
2018-02-11T11:05:16.353Z,20.24
2018-02-11T11:06:18.815Z,20.20
2018-02-11T11:07:21.271Z,20.18
2018-02-11T11:08:23.727Z,20.15
2018-02-11T11:09:26.206Z,20.07
2018-02-11T11:10:28.681Z,20.02
2018-02-11T11:11:31.153Z,19.99
2018-02-11T11:12:33.608Z,19.95
2018-02-11T11:13:36.067Z,19.92
2018-02-11T11:14:38.701Z,19.88
2018-02-11T11:15:41.846Z,19.87
2018-02-11T11:16:44.329Z,19.82
2018-02-11T11:17:46.794Z,19.78
2018-02-11T11:18:49.273Z,19.76
2018-02-11T11:19:51.773Z,19.73
2018-02-11T11:20:54.256Z,19.69
2018-02-11T11:21:56.739Z,19.65
2018-02-11T11:22:59.212Z,19.61
2018-02-11T11:24:01.690Z,19.56
2018-02-11T11:25:04.189Z,19.51
2018-02-11T11:26:06.666Z,19.46
2018-02-11T11:27:09.155Z,19.40
2018-02-11T11:28:11.625Z,19.35
2018-02-11T11:29:14.108Z,19.32
2018-02-11T11:30:16.611Z,19.28
2018-02-11T11:31:19.089Z,19.24
2018-02-11T11:32:21.566Z,19.19
2018-02-11T11:33:24.031Z,19.15
2018-02-11T11:34:26.507Z,19.11
2018-02-11T11:35:29.005Z,19.07
2018-02-11T11:36:31.485Z,19.03
2018-02-11T11:37:33.960Z,18.98
2018-02-11T11:38:36.419Z,18.94
2018-02-11T11:39:38.886Z,18.91
2018-02-11T11:40:41.390Z,18.89
2018-02-11T11:41:43.863Z,18.86
2018-02-11T11:42:46.336Z,18.82
2018-02-11T11:43:48.804Z,18.78
2018-02-11T11:44:51.277Z,18.75
2018-02-11T11:45:53.777Z,18.72
2018-02-11T11:46:56.293Z,18.69
2018-02-11T11:47:58.755Z,18.66
2018-02-11T11:49:01.241Z,18.63
2018-02-11T11:50:03.706Z,18.60
2018-02-11T11:51:06.193Z,18.58
2018-02-11T11:52:08.675Z,18.55
2018-02-11T11:53:11.158Z,18.53
2018-02-11T11:54:13.657Z,18.50
2018-02-11T11:55:16.144Z,18.48
2018-02-11T11:56:18.669Z,18.47
2018-02-11T11:57:21.157Z,18.44
2018-02-11T11:58:23.614Z,18.42
2018-02-11T11:59:26.166Z,18.40
2018-02-11T12:00:28.640Z,18.38
2018-02-11T12:01:31.122Z,18.36
2018-02-11T12:02:33.593Z,18.33
2018-02-11T12:03:36.055Z,18.32
2018-02-11T12:04:38.515Z,18.29
2018-02-11T12:05:40.988Z,18.28
2018-02-11T12:06:43.478Z,18.25
2018-02-11T12:07:45.943Z,18.23
2018-02-11T12:08:48.403Z,18.21
2018-02-11T12:09:50.881Z,18.20
2018-02-11T12:10:53.346Z,18.18
2018-02-11T12:11:55.840Z,18.17
2018-02-11T12:12:58.299Z,18.14
2018-02-11T12:14:00.773Z,18.12
2018-02-11T12:15:03.237Z,18.10
2018-02-11T12:16:05.771Z,18.09
2018-02-11T12:17:08.222Z,18.07
2018-02-11T12:18:10.705Z,18.04
2018-02-11T12:19:13.181Z,18.02
2018-02-11T12:20:15.661Z,18.01
2018-02-11T12:21:18.135Z,17.99
2018-02-11T12:22:20.641Z,17.98
2018-02-11T12:23:23.103Z,17.96
2018-02-11T12:24:25.604Z,17.95
2018-02-11T12:25:28.067Z,17.93
2018-02-11T12:26:30.531Z,17.91
2018-02-11T12:27:33.026Z,17.90
2018-02-11T12:28:35.557Z,17.88
2018-02-11T12:29:38.042Z,17.87
2018-02-11T12:30:40.514Z,17.86
2018-02-11T12:31:42.994Z,17.84
2018-02-11T12:32:45.478Z,17.84
2018-02-11T12:33:47.947Z,17.82
2018-02-11T12:34:50.415Z,17.82
2018-02-11T12:35:52.897Z,17.81
2018-02-11T12:36:55.422Z,17.82
2018-02-11T12:37:57.951Z,17.80
2018-02-11T12:39:00.643Z,17.79
2018-02-11T12:40:03.160Z,17.78
2018-02-11T12:41:05.691Z,17.77
2018-02-11T12:42:08.172Z,17.77
2018-02-11T12:43:10.683Z,17.76
2018-02-11T12:44:13.151Z,17.76
2018-02-11T12:45:15.657Z,17.76
2018-02-11T12:46:18.125Z,17.76
2018-02-11T12:47:20.578Z,17.75
2018-02-11T12:48:23.117Z,17.75
2018-02-11T12:49:25.640Z,17.74
2018-02-11T12:50:28.135Z,17.73
2018-02-11T12:51:30.622Z,17.73
2018-02-11T12:52:33.152Z,17.72
2018-02-11T12:53:36.150Z,17.72
2018-02-11T12:54:39.391Z,17.71
2018-02-11T12:55:41.877Z,17.71
2018-02-11T12:56:44.412Z,17.69
2018-02-11T12:57:46.886Z,17.68
2018-02-11T12:58:49.392Z,17.66
2018-02-11T12:59:51.881Z,17.65
2018-02-11T13:00:54.377Z,17.63
2018-02-11T13:01:56.841Z,17.61
2018-02-11T13:02:59.365Z,17.60
2018-02-11T13:04:02.239Z,17.58
2018-02-11T13:05:04.706Z,17.57
2018-02-11T13:06:07.200Z,17.57
2018-02-11T13:07:09.689Z,17.57
2018-02-11T13:08:12.249Z,17.57
2018-02-11T13:09:14.810Z,17.57
2018-02-11T13:10:17.272Z,17.56
2018-02-11T13:11:19.736Z,17.55
2018-02-11T13:12:22.279Z,17.55
2018-02-11T13:13:24.714Z,17.54
2018-02-11T13:14:27.202Z,17.54
2018-02-11T13:15:29.671Z,17.53
2018-02-11T13:16:32.152Z,17.53
2018-02-11T13:17:34.622Z,17.52
2018-02-11T13:18:37.109Z,17.51
2018-02-11T13:19:39.681Z,17.48
2018-02-11T13:20:42.151Z,17.48
2018-02-11T13:21:44.664Z,17.46
2018-02-11T13:22:47.130Z,17.45
2018-02-11T13:23:49.607Z,17.43
2018-02-11T13:24:52.096Z,17.42